Řízení letového provozu České republiky  
Aktualizace dat:  30.04.2016 07:04:31 UTC English version
   METEO Zobrazení stránky:  30.04.2016 07:06:16 UTC  
vysvětlivky
METAR EDDB 300650Z 14005KT 110V170 CAVOK 10/01 Q1018 NOSIG=
METAR EDDC 300650Z 15009KT CAVOK 12/01 Q1018 NOSIG=
METAR EDDE 300650Z 21005KT CAVOK 07/02 Q1017 NOSIG=
METAR EDDF 300650Z VRB01KT CAVOK 08/02 Q1017 NOSIG=
METAR EDDM 300650Z VRB01KT CAVOK 08/02 Q1017 NOSIG=
METAR EDDN 300650Z 13005KT 100V160 CAVOK 10/02 Q1017 NOSIG=
METAR COR EDDP 300650Z 17007KT CAVOK 11/04 Q1017 NOSIG=
METAR EDDT 300650Z 15008KT 120V180 CAVOK 10/M01 Q1018 NOSIG=
METAR EDQM 300650Z 16005KT 120V200 CAVOK 09/M01 Q1017=
METAR EPBY 300700Z 09006KT 050V140 CAVOK 11/03 Q1023 =
METAR EPGD 300700Z 13009KT CAVOK 10/02 Q1024 =
METAR EPKK 300700Z 05006KT 9999 SCT010 BKN015 09/07 Q1020 =
METAR EPKT 300700Z VRB02KT CAVOK 11/05 Q1020 =
METAR EPLL 300700Z 07007KT 030V100 9999 BKN015 09/04 Q1022 =
METAR EPPO 300700Z 12012KT CAVOK 11/M00 Q1022 =
METAR EPRZ 300700Z 35004KT 320V020 9999 BKN005 OVC007 08/07 Q1020 =
METAR EPWA 300700Z 08003KT 040V100 CAVOK 09/05 Q1022 NOSIG=
METAR EPWR 300700Z 12007KT CAVOK 10/03 Q1021 =
METAR LHBP 300700Z VRB02KT CAVOK 13/08 Q1020 NOSIG=
METAR LHSM 300645Z 14002KT 4000 VCFG NSC 09/05 Q1020 BECMG 6000 NSW NSC=
METAR LKCV 300600Z VRB02KT CAVOK 07/01 Q1019 NOSIG=
METAR LKKB 300600Z VRB01KT CAVOK 07/00 Q1019 NOSIG=
METAR LKKU NIL
METAR LKKV 300700Z 12006KT 080V140 CAVOK 10/M00 Q1018=
METAR LKLN 300600Z AUTO 28001KT CAVOK 04/00 Q1019=
METAR LKMT 300700Z 03004KT 350V090 8000 NSC 07/04 Q1020 NOSIG RMK REG QNH 1015=
METAR LKNA 300600Z VRB02KT CAVOK 06/M00 Q1019 NOSIG=
METAR LKPD 300600Z VRB02KT CAVOK 05/01 Q1020 NOSIG=
METAR LKPR 300700Z 06005KT 020V100 CAVOK 10/M00 Q1019 NOSIG=
METAR LKTB 300700Z 08007KT 050V110 CAVOK 10/03 Q1019 NOSIG=
METAR LKVO NIL
METAR LOWI 300650Z 28006KT 250V310 CAVOK 08/02 Q1018 NOSIG=
METAR LOWL 300650Z 09006KT CAVOK 10/02 Q1018 NOSIG=
METAR LOWS 300650Z 14008KT CAVOK 10/01 Q1017 NOSIG=
METAR LOWW 300650Z VRB02KT CAVOK 10/03 Q1019 NOSIG=
METAR LZIB 300700Z 06004KT 030V100 CAVOK 10/04 Q1020 NOSIG=
METAR LZKZ 300700Z 36008KT 9999 SCT023 11/06 Q1020 NOSIG=
METAR LZPP 300700Z 04004KT CAVOK 09/05 Q1020=
METAR LZSL 300700Z VRB01KT 9999 FEW033 09/05 Q1020=
METAR LZTT 300700Z VRB02KT 9999 BKN020 08/03 Q1020 NOSIG=
METAR LZZI 300700Z 05004KT 010V080 9999 FEW021 09/03 Q1020=